createdAt,value
2022-12-12T00:00:43.224Z,30.30
2022-12-12T00:03:31.823Z,30.20
2022-12-12T00:06:05.766Z,28.80
2022-12-12T00:08:38.343Z,29.10
2022-12-12T00:11:10.859Z,29.70
2022-12-12T00:13:44.452Z,28.30
2022-12-12T00:16:18.463Z,28.10
2022-12-12T00:18:51.173Z,26.40
2022-12-12T00:21:25.679Z,26.80
2022-12-12T00:24:01.108Z,27.20
2022-12-12T00:26:35.074Z,25.90
2022-12-12T00:29:07.568Z,27.10
2022-12-12T00:31:40.917Z,26.10
2022-12-12T00:34:15.017Z,25.30
2022-12-12T00:36:49.061Z,25.20
2022-12-12T00:39:23.154Z,27.00
2022-12-12T00:41:56.472Z,25.70
2022-12-12T00:44:29.698Z,25.30
2022-12-12T00:47:04.822Z,25.50
2022-12-12T00:49:41.233Z,24.70
2022-12-12T00:52:17.285Z,25.20
2022-12-12T00:54:49.199Z,24.00
2022-12-12T00:57:21.962Z,24.90
2022-12-12T00:59:53.990Z,26.70
2022-12-12T01:02:28.479Z,26.80
2022-12-12T01:05:01.317Z,26.90
2022-12-12T01:07:34.254Z,26.70
2022-12-12T01:10:07.965Z,28.70
2022-12-12T01:12:40.270Z,28.40
2022-12-12T01:15:15.159Z,29.00
2022-12-12T01:17:47.597Z,28.40
2022-12-12T01:20:23.985Z,29.00
2022-12-12T01:22:56.923Z,29.30
2022-12-12T01:25:29.844Z,29.70
2022-12-12T01:28:02.991Z,29.90
2022-12-12T01:30:39.367Z,30.10
2022-12-12T01:33:12.591Z,29.80
2022-12-12T01:35:48.832Z,30.60
2022-12-12T01:38:21.492Z,31.10
2022-12-12T01:40:57.765Z,31.40
2022-12-12T01:43:31.871Z,31.40
2022-12-12T01:46:35.032Z,31.10
2022-12-12T01:49:13.419Z,30.80
2022-12-12T01:51:48.792Z,29.80
2022-12-12T01:54:24.013Z,29.70
2022-12-12T01:56:58.518Z,28.70
2022-12-12T01:59:31.249Z,29.50
2022-12-12T02:02:03.638Z,29.60
2022-12-12T02:04:36.675Z,28.90
2022-12-12T02:07:09.366Z,30.50
2022-12-12T02:09:43.601Z,31.00
2022-12-12T02:12:17.267Z,31.90
2022-12-12T02:14:51.796Z,33.00
2022-12-12T02:17:51.569Z,33.00
2022-12-12T02:20:51.463Z,33.90
2022-12-12T02:23:56.320Z,33.90
2022-12-12T02:26:53.692Z,34.70
2022-12-12T02:29:56.568Z,34.50
2022-12-12T02:32:39.913Z,35.30
2022-12-12T02:35:20.252Z,36.30
2022-12-12T02:38:00.772Z,35.30
2022-12-12T02:40:38.645Z,35.40
2022-12-12T02:43:14.865Z,36.00
2022-12-12T02:45:49.762Z,35.30
2022-12-12T02:48:28.055Z,36.10
2022-12-12T02:51:04.510Z,34.70
2022-12-12T02:53:38.324Z,35.30
2022-12-12T02:56:46.758Z,35.70
2022-12-12T02:59:24.077Z,36.20
2022-12-12T03:02:09.850Z,35.80
2022-12-12T03:05:09.116Z,36.60
2022-12-12T03:07:51.009Z,36.20
2022-12-12T03:10:32.903Z,36.10
2022-12-12T03:13:12.163Z,34.70
2022-12-12T03:16:00.271Z,35.20
2022-12-12T03:18:38.763Z,36.80
2022-12-12T03:21:16.862Z,36.90
2022-12-12T03:23:51.280Z,37.70
2022-12-12T03:26:27.434Z,38.00
2022-12-12T03:29:05.720Z,38.90
2022-12-12T03:31:41.122Z,38.60
2022-12-12T03:34:17.896Z,37.60
2022-12-12T03:36:52.922Z,37.40
2022-12-12T03:39:31.232Z,38.10
2022-12-12T03:42:11.449Z,38.80
2022-12-12T03:44:47.712Z,39.50
2022-12-12T03:47:23.808Z,39.40
2022-12-12T03:50:03.683Z,39.00
2022-12-12T03:52:39.110Z,38.50
2022-12-12T03:55:16.252Z,38.90
2022-12-12T03:57:53.522Z,37.90
2022-12-12T04:00:29.463Z,37.80
2022-12-12T04:03:07.421Z,38.30
2022-12-12T04:06:05.718Z,37.20
2022-12-12T04:08:38.448Z,39.10
2022-12-12T04:11:40.536Z,39.00
2022-12-12T04:14:21.520Z,39.00
2022-12-12T04:17:01.207Z,38.50
2022-12-12T04:19:58.120Z,38.10
2022-12-12T04:22:54.157Z,35.70
2022-12-12T04:25:32.451Z,36.70
2022-12-12T04:28:08.142Z,37.00
2022-12-12T04:30:43.965Z,36.00
2022-12-12T04:33:18.614Z,37.10
2022-12-12T04:35:53.591Z,37.30
2022-12-12T04:38:28.896Z,37.40
2022-12-12T04:41:04.725Z,37.10
2022-12-12T04:43:39.694Z,35.00
2022-12-12T04:46:17.482Z,36.20
2022-12-12T04:48:55.197Z,35.80
2022-12-12T04:51:29.871Z,36.80
2022-12-12T04:54:06.784Z,36.50
2022-12-12T04:56:39.874Z,36.60
2022-12-12T04:59:14.791Z,37.40
2022-12-12T05:01:53.806Z,35.50
2022-12-12T05:04:31.458Z,36.90
2022-12-12T05:07:10.472Z,37.40
2022-12-12T05:09:43.649Z,38.40
2022-12-12T05:12:17.816Z,38.20
2022-12-12T05:14:51.070Z,38.90
2022-12-12T05:17:29.892Z,37.30
2022-12-12T05:20:04.511Z,39.00
2022-12-12T05:22:37.265Z,38.00
2022-12-12T05:25:11.250Z,38.60
2022-12-12T05:27:44.394Z,39.60
2022-12-12T05:30:20.150Z,38.80
2022-12-12T05:32:52.417Z,38.60
2022-12-12T05:35:26.121Z,37.70
2022-12-12T05:38:02.370Z,37.50
2022-12-12T05:40:36.144Z,37.80
2022-12-12T05:43:11.960Z,36.70
2022-12-12T05:45:44.554Z,38.10
2022-12-12T05:48:22.580Z,36.80
2022-12-12T05:50:58.387Z,37.40
2022-12-12T05:53:42.270Z,37.10
2022-12-12T05:56:16.109Z,37.10
2022-12-12T05:58:49.437Z,37.80
2022-12-12T06:01:21.862Z,37.80
2022-12-12T06:03:56.173Z,37.10
2022-12-12T06:06:31.971Z,37.20
2022-12-12T06:09:05.281Z,38.30
2022-12-12T06:11:39.639Z,39.00
2022-12-12T06:14:11.572Z,39.10
2022-12-12T06:16:45.162Z,37.40
2022-12-12T06:19:17.156Z,37.70
2022-12-12T06:21:51.411Z,38.20
2022-12-12T06:24:25.221Z,38.60
2022-12-12T06:26:57.363Z,39.20
2022-12-12T06:29:34.304Z,39.90
2022-12-12T06:32:09.091Z,40.50
2022-12-12T06:34:43.279Z,40.30
2022-12-12T06:37:17.513Z,38.40
2022-12-12T06:39:50.041Z,38.60
2022-12-12T06:42:22.301Z,40.30
2022-12-12T06:44:56.896Z,39.50
2022-12-12T06:47:29.404Z,39.70
2022-12-12T06:50:03.336Z,39.50
2022-12-12T06:52:39.274Z,40.30
2022-12-12T06:55:14.571Z,38.00
2022-12-12T06:57:47.872Z,39.40
2022-12-12T07:00:22.757Z,40.50
2022-12-12T07:02:55.879Z,39.80
2022-12-12T07:05:30.322Z,40.10
2022-12-12T07:08:05.515Z,39.30
2022-12-12T07:10:41.526Z,39.80
2022-12-12T07:13:15.158Z,40.10
2022-12-12T07:15:48.569Z,39.90
2022-12-12T07:18:24.067Z,39.30
2022-12-12T07:20:58.055Z,38.10
2022-12-12T07:23:32.957Z,37.70
2022-12-12T07:26:11.549Z,37.80
2022-12-12T07:28:43.470Z,37.80
2022-12-12T07:31:19.471Z,38.10
2022-12-12T07:33:55.365Z,38.80
2022-12-12T07:36:27.793Z,39.90
2022-12-12T07:39:00.215Z,38.30
2022-12-12T07:41:36.933Z,38.70
2022-12-12T07:44:10.128Z,39.00
2022-12-12T07:46:43.658Z,39.70
2022-12-12T07:49:16.031Z,39.30
2022-12-12T07:51:50.633Z,40.80
2022-12-12T07:54:23.582Z,40.80
2022-12-12T07:56:55.918Z,41.20
2022-12-12T07:59:28.223Z,42.10
2022-12-12T08:02:00.994Z,42.90
2022-12-12T08:04:33.332Z,43.90
2022-12-12T08:07:08.873Z,43.90
2022-12-12T08:09:43.587Z,44.00
2022-12-12T08:12:15.666Z,45.90
2022-12-12T08:14:48.089Z,46.20
2022-12-12T08:17:20.142Z,45.70
2022-12-12T08:19:53.728Z,44.60
2022-12-12T08:22:30.048Z,45.00
2022-12-12T08:25:03.517Z,44.60
2022-12-12T08:27:39.346Z,45.00
2022-12-12T08:30:14.771Z,45.20
2022-12-12T08:32:48.542Z,46.00
2022-12-12T08:35:21.911Z,45.50
2022-12-12T08:37:54.047Z,45.50
2022-12-12T08:40:28.461Z,47.90
2022-12-12T08:43:03.895Z,45.80
2022-12-12T08:45:35.971Z,47.80
2022-12-12T08:48:09.620Z,47.70
2022-12-12T08:50:44.042Z,50.00
2022-12-12T08:53:18.727Z,47.30
2022-12-12T08:55:53.445Z,54.80
2022-12-12T08:58:26.766Z,55.40
2022-12-12T09:00:59.757Z,52.60
2022-12-12T09:03:35.261Z,50.90
2022-12-12T09:06:08.136Z,49.80
2022-12-12T09:08:41.978Z,47.40
2022-12-12T09:11:15.787Z,48.30
2022-12-12T09:13:48.228Z,47.30
2022-12-12T09:16:26.420Z,46.40
2022-12-12T09:18:59.224Z,44.70
2022-12-12T09:21:31.853Z,44.80
2022-12-12T09:24:04.990Z,45.20
2022-12-12T09:26:39.462Z,48.00
2022-12-12T09:29:14.230Z,45.40
2022-12-12T09:31:46.089Z,52.60
2022-12-12T09:34:18.452Z,45.60
2022-12-12T09:36:50.369Z,46.90
2022-12-12T09:39:22.671Z,45.20
2022-12-12T09:41:55.344Z,57.00
2022-12-12T09:44:29.740Z,46.20
2022-12-12T09:47:06.447Z,53.90
2022-12-12T09:49:44.262Z,51.60
2022-12-12T09:52:19.554Z,47.90
2022-12-12T09:54:52.616Z,50.40
2022-12-12T09:57:32.335Z,46.40
2022-12-12T10:00:10.740Z,50.70
2022-12-12T10:03:10.282Z,46.90
2022-12-12T10:05:47.539Z,48.60
2022-12-12T10:08:25.286Z,48.80
2022-12-12T10:10:59.571Z,47.90
2022-12-12T10:13:32.912Z,49.30
2022-12-12T10:16:10.376Z,49.20
2022-12-12T10:18:45.316Z,48.80
2022-12-12T10:21:21.641Z,48.20
2022-12-12T10:23:57.566Z,49.50
2022-12-12T10:26:32.019Z,45.40
2022-12-12T10:29:12.147Z,44.30
2022-12-12T10:31:52.065Z,45.20
2022-12-12T10:34:41.151Z,48.20
2022-12-12T10:37:39.094Z,45.50
2022-12-12T10:40:23.819Z,44.90
2022-12-12T10:43:00.658Z,44.90
2022-12-12T10:45:46.294Z,44.80
2022-12-12T10:48:19.422Z,49.10
2022-12-12T10:50:56.078Z,46.80
2022-12-12T10:53:28.194Z,47.50
2022-12-12T10:56:04.818Z,45.80
2022-12-12T10:58:43.625Z,44.50
2022-12-12T11:01:38.425Z,44.50
2022-12-12T11:04:17.612Z,45.50
2022-12-12T11:06:51.696Z,45.00
2022-12-12T11:09:26.795Z,44.80
2022-12-12T11:12:04.838Z,47.20
2022-12-12T11:14:41.203Z,45.00
2022-12-12T11:17:25.776Z,43.50
2022-12-12T11:20:04.410Z,46.50
2022-12-12T11:22:39.266Z,45.90
2022-12-12T11:25:29.229Z,43.90
2022-12-12T11:28:06.950Z,43.50
2022-12-12T11:30:45.795Z,43.50
2022-12-12T11:33:23.514Z,43.90
2022-12-12T11:35:59.303Z,42.40
2022-12-12T11:38:39.845Z,41.10
2022-12-12T11:41:14.928Z,43.60
2022-12-12T11:44:01.397Z,45.60
2022-12-12T11:46:34.776Z,46.60
2022-12-12T11:49:11.095Z,46.30
2022-12-12T11:51:44.844Z,45.00
2022-12-12T11:54:21.707Z,44.70
2022-12-12T11:56:59.016Z,47.80
2022-12-12T11:59:41.942Z,49.20
2022-12-12T12:02:42.839Z,45.80
2022-12-12T12:05:24.291Z,45.90
2022-12-12T12:08:10.678Z,49.20
2022-12-12T12:10:57.296Z,49.50
2022-12-12T12:13:46.244Z,50.70
2022-12-12T12:16:25.003Z,50.90
2022-12-12T12:19:07.954Z,48.40
2022-12-12T12:21:49.147Z,46.70
2022-12-12T12:24:39.262Z,47.90
2022-12-12T12:27:20.156Z,50.00
2022-12-12T12:30:10.936Z,45.80
2022-12-12T12:32:55.014Z,46.40
2022-12-12T12:35:31.922Z,50.00
2022-12-12T12:38:15.964Z,46.20
2022-12-12T12:41:01.045Z,45.20
2022-12-12T12:43:43.769Z,46.30
2022-12-12T12:46:21.153Z,44.10
2022-12-12T12:48:55.356Z,45.90
2022-12-12T12:51:36.555Z,45.10
2022-12-12T12:54:14.599Z,41.90
2022-12-12T12:56:50.630Z,43.50
2022-12-12T12:59:29.423Z,43.20
2022-12-12T13:02:07.867Z,42.50
2022-12-12T13:04:45.444Z,39.80
2022-12-12T13:07:22.988Z,43.60
2022-12-12T13:10:01.016Z,46.20
2022-12-12T13:12:39.392Z,43.10
2022-12-12T13:15:18.432Z,42.40
2022-12-12T13:17:57.072Z,43.30
2022-12-12T13:20:30.847Z,45.20
2022-12-12T13:23:20.641Z,46.90
2022-12-12T13:25:57.930Z,42.50
2022-12-12T13:28:35.996Z,45.00
2022-12-12T13:31:22.847Z,42.80
2022-12-12T13:33:57.758Z,41.20
2022-12-12T13:36:33.236Z,39.70
2022-12-12T13:39:09.021Z,40.50
2022-12-12T13:42:01.371Z,37.70
2022-12-12T13:44:42.723Z,37.90
2022-12-12T13:47:56.399Z,39.50
2022-12-12T13:50:29.166Z,38.80
2022-12-12T13:53:21.972Z,38.30
2022-12-12T13:56:34.567Z,39.90
2022-12-12T13:59:32.752Z,39.00
2022-12-12T14:02:19.727Z,37.80
2022-12-12T14:05:10.419Z,39.30
2022-12-12T14:07:50.295Z,38.10
2022-12-12T14:10:27.691Z,37.30
2022-12-12T14:13:01.168Z,41.30
2022-12-12T14:15:35.164Z,40.90
2022-12-12T14:18:09.209Z,40.00
2022-12-12T14:20:47.308Z,37.00
2022-12-12T14:23:30.492Z,39.20
2022-12-12T14:26:04.278Z,35.30
2022-12-12T14:28:39.501Z,36.10
2022-12-12T14:31:17.757Z,39.80
2022-12-12T14:34:05.439Z,44.40
2022-12-12T14:37:03.386Z,38.90
2022-12-12T14:40:05.389Z,39.60
2022-12-12T14:43:15.240Z,55.80
2022-12-12T14:45:41.958Z,40.60
2022-12-12T14:48:17.899Z,40.00
2022-12-12T14:50:57.010Z,41.20
2022-12-12T14:53:35.039Z,43.70
2022-12-12T14:56:11.632Z,40.30
2022-12-12T14:58:46.264Z,40.60
2022-12-12T15:01:31.628Z,39.10
2022-12-12T15:04:09.723Z,41.50
2022-12-12T15:06:44.701Z,47.00
2022-12-12T15:09:27.386Z,54.00
2022-12-12T15:12:13.793Z,52.40
2022-12-12T15:14:58.680Z,46.60
2022-12-12T15:17:33.022Z,47.30
2022-12-12T15:20:11.788Z,46.60
2022-12-12T15:22:54.258Z,54.60
2022-12-12T15:25:28.821Z,52.20
2022-12-12T15:28:01.377Z,45.90
2022-12-12T15:30:37.699Z,45.70
2022-12-12T15:33:17.857Z,46.60
2022-12-12T15:35:59.670Z,51.90
2022-12-12T15:38:39.190Z,54.50
2022-12-12T15:41:13.882Z,53.40
2022-12-12T15:43:47.048Z,53.90
2022-12-12T15:46:21.335Z,51.10
2022-12-12T15:48:55.812Z,51.60
2022-12-12T15:51:33.202Z,50.70
2022-12-12T15:54:07.219Z,55.80
2022-12-12T15:56:40.600Z,49.70
2022-12-12T15:59:25.697Z,50.90
2022-12-12T16:02:00.098Z,49.40
2022-12-12T16:04:35.772Z,50.50
2022-12-12T16:07:25.271Z,54.20
2022-12-12T16:10:22.878Z,62.10
2022-12-12T16:13:07.165Z,48.10
2022-12-12T16:15:41.292Z,50.90
2022-12-12T16:18:21.095Z,56.70
2022-12-12T16:20:55.360Z,48.70
2022-12-12T16:23:31.942Z,48.90
2022-12-12T16:26:07.120Z,52.20
2022-12-12T16:28:42.806Z,54.00
2022-12-12T16:31:19.115Z,49.80
2022-12-12T16:33:53.172Z,53.30
2022-12-12T16:36:27.417Z,50.90
2022-12-12T16:39:03.566Z,45.00
2022-12-12T16:41:37.401Z,45.10
2022-12-12T16:44:13.788Z,41.60
2022-12-12T16:46:49.194Z,43.10
2022-12-12T16:49:23.894Z,44.60
2022-12-12T16:51:58.253Z,45.40
2022-12-12T16:54:31.786Z,45.10
2022-12-12T16:57:06.535Z,44.60
2022-12-12T16:59:40.771Z,43.10
2022-12-12T17:02:21.536Z,37.80
2022-12-12T17:04:54.000Z,47.00
2022-12-12T17:07:28.343Z,46.30
2022-12-12T17:10:02.365Z,39.30
2022-12-12T17:12:34.545Z,39.10
2022-12-12T17:15:08.738Z,39.30
2022-12-12T17:17:44.169Z,40.20
2022-12-12T17:20:17.296Z,34.30
2022-12-12T17:22:50.755Z,33.00
2022-12-12T17:25:25.545Z,29.10
2022-12-12T17:28:01.311Z,31.80
2022-12-12T17:30:34.600Z,34.90
2022-12-12T17:33:20.599Z,30.80
2022-12-12T17:36:02.500Z,35.30
2022-12-12T17:38:36.167Z,38.80
2022-12-12T17:41:09.370Z,33.00
2022-12-12T17:43:42.654Z,45.60
2022-12-12T17:46:19.422Z,35.30
2022-12-12T17:48:53.721Z,35.00
2022-12-12T17:51:26.207Z,30.60
2022-12-12T17:54:00.559Z,30.40
2022-12-12T17:56:37.273Z,34.60
2022-12-12T17:59:12.117Z,28.70
2022-12-12T18:01:47.785Z,28.10
2022-12-12T18:04:24.483Z,30.20
2022-12-12T18:07:02.572Z,29.20
2022-12-12T18:09:36.399Z,28.50
2022-12-12T18:12:10.753Z,32.40
2022-12-12T18:14:44.947Z,29.20
2022-12-12T18:17:17.877Z,28.60
2022-12-12T18:19:54.180Z,26.30
2022-12-12T18:22:26.483Z,25.40
2022-12-12T18:24:58.828Z,29.40
2022-12-12T18:27:32.953Z,34.00
2022-12-12T18:30:06.607Z,32.90
2022-12-12T18:32:41.261Z,28.80
2022-12-12T18:35:14.072Z,31.90
2022-12-12T18:37:49.949Z,32.30
2022-12-12T18:40:24.479Z,30.40
2022-12-12T18:42:57.593Z,28.50
2022-12-12T18:45:29.712Z,29.10
2022-12-12T18:48:03.999Z,28.00
2022-12-12T18:50:37.622Z,27.70
2022-12-12T18:53:09.734Z,28.70
2022-12-12T18:55:46.254Z,36.10
2022-12-12T18:58:20.195Z,28.60
2022-12-12T19:00:52.267Z,26.80
2022-12-12T19:03:25.143Z,23.10
2022-12-12T19:05:59.081Z,25.10
2022-12-12T19:08:32.519Z,23.30
2022-12-12T19:11:09.400Z,30.70
2022-12-12T19:13:47.062Z,27.10
2022-12-12T19:16:21.095Z,29.90
2022-12-12T19:18:54.391Z,29.10
2022-12-12T19:21:29.817Z,29.00
2022-12-12T19:24:04.871Z,30.40
2022-12-12T19:26:38.358Z,21.50
2022-12-12T19:29:13.816Z,22.90
2022-12-12T19:31:55.374Z,21.60
2022-12-12T19:34:32.734Z,22.50
2022-12-12T19:37:05.453Z,22.50
2022-12-12T19:39:37.818Z,21.30
2022-12-12T19:42:09.652Z,25.60
2022-12-12T19:44:43.511Z,23.40
2022-12-12T19:47:18.582Z,22.40
2022-12-12T19:49:51.830Z,26.30
2022-12-12T19:52:27.787Z,25.20
2022-12-12T19:55:00.133Z,24.50
2022-12-12T19:57:34.245Z,22.90
2022-12-12T20:00:11.656Z,20.30
2022-12-12T20:02:46.599Z,24.20
2022-12-12T20:05:22.251Z,24.30
2022-12-12T20:07:58.075Z,26.20
2022-12-12T20:10:30.111Z,21.00
2022-12-12T20:13:02.914Z,22.40
2022-12-12T20:15:40.253Z,25.30
2022-12-12T20:18:16.588Z,21.70
2022-12-12T20:20:52.282Z,23.10
2022-12-12T20:23:25.562Z,26.20
2022-12-12T20:25:58.711Z,25.20
2022-12-12T20:28:31.592Z,24.20
2022-12-12T20:31:13.661Z,22.80
2022-12-12T20:33:47.551Z,24.70
2022-12-12T20:36:24.370Z,27.40
2022-12-12T20:38:59.022Z,26.20
2022-12-12T20:41:36.340Z,24.60
2022-12-12T20:44:11.756Z,28.40
2022-12-12T20:46:47.484Z,26.20
2022-12-12T20:49:24.180Z,26.40
2022-12-12T20:51:59.026Z,20.60
2022-12-12T20:54:32.297Z,30.60
2022-12-12T20:57:05.301Z,28.10
2022-12-12T20:59:37.188Z,22.20
2022-12-12T21:02:10.236Z,25.30
2022-12-12T21:04:43.180Z,22.30
2022-12-12T21:07:16.176Z,24.10
2022-12-12T21:09:50.469Z,24.90
2022-12-12T21:12:22.731Z,24.30
2022-12-12T21:15:02.531Z,23.60
2022-12-12T21:17:37.039Z,24.40
2022-12-12T21:20:12.858Z,25.80
2022-12-12T21:22:45.712Z,24.00
2022-12-12T21:25:20.157Z,21.70
2022-12-12T21:27:55.849Z,21.80
2022-12-12T21:30:30.995Z,21.30
2022-12-12T21:33:05.482Z,21.10
2022-12-12T21:35:39.982Z,20.60
2022-12-12T21:38:13.037Z,20.90
2022-12-12T21:40:46.847Z,21.50
2022-12-12T21:43:21.163Z,21.40
2022-12-12T21:45:55.662Z,19.90
2022-12-12T21:48:31.947Z,19.40
2022-12-12T21:51:06.866Z,18.50
2022-12-12T21:53:39.034Z,21.30
2022-12-12T21:56:13.242Z,19.80
2022-12-12T21:58:50.313Z,19.40
2022-12-12T22:01:24.193Z,19.60
2022-12-12T22:03:57.076Z,19.90
2022-12-12T22:06:32.347Z,19.20
2022-12-12T22:09:08.284Z,19.30
2022-12-12T22:11:49.889Z,20.10
2022-12-12T22:14:26.279Z,22.00
2022-12-12T22:16:59.958Z,23.50
2022-12-12T22:19:32.298Z,23.90
2022-12-12T22:22:06.243Z,23.10
2022-12-12T22:24:39.879Z,21.50
2022-12-12T22:27:12.956Z,21.50
2022-12-12T22:29:49.131Z,22.50
2022-12-12T22:32:22.071Z,20.80
2022-12-12T22:34:58.219Z,19.10
2022-12-12T22:37:33.001Z,20.50
2022-12-12T22:40:16.841Z,19.20
2022-12-12T22:42:50.399Z,19.70
2022-12-12T22:45:23.585Z,20.30
2022-12-12T22:47:57.120Z,23.20
2022-12-12T22:50:30.415Z,20.80
2022-12-12T22:53:03.205Z,19.20
2022-12-12T22:55:39.566Z,19.90
2022-12-12T22:58:12.692Z,19.50
2022-12-12T23:00:46.376Z,18.30
2022-12-12T23:03:22.233Z,18.90
2022-12-12T23:05:58.463Z,20.40
2022-12-12T23:08:31.110Z,21.60
2022-12-12T23:11:12.681Z,22.50
2022-12-12T23:13:49.809Z,20.20
2022-12-12T23:16:27.585Z,21.60
2022-12-12T23:19:01.095Z,21.40
2022-12-12T23:21:38.440Z,18.80
2022-12-12T23:24:12.058Z,18.40
2022-12-12T23:26:45.967Z,20.10
2022-12-12T23:29:20.362Z,20.50
2022-12-12T23:31:53.896Z,21.20
2022-12-12T23:34:26.955Z,20.80
2022-12-12T23:36:59.982Z,20.40
2022-12-12T23:39:33.084Z,20.10
2022-12-12T23:42:06.628Z,18.60
2022-12-12T23:44:39.972Z,18.30
2022-12-12T23:47:13.913Z,17.90
2022-12-12T23:49:47.101Z,17.20
2022-12-12T23:52:19.482Z,18.00
2022-12-12T23:54:53.419Z,18.80
2022-12-12T23:57:27.236Z,18.10
